Main page
METAR-TAF:

METAR-TAF

Airports :

Pardubice Airport

Pardubice, Czech Republic

latitude: 50-00-48N, longitude: 15-44-19E, elevation: 226 m

Current weather observation

The report was made 45 minutes ago, at 17:30 UTC
Wind 4 kt from the West/Northwest, varying between West/Southwest and North/Northwest
Temperature 20°C
Humidity 60%
Pressure 1010 hPa
Visibility 10 km or more
no clouds below 1500 m and no cumulonimbus

METAR: LKPD 151730Z 30004KT 250V340 CAVOK 20/12 Q1010 NOSIG RMK BLU BLU

Time: 20:15 (18:15 UTC)

Forecast

The report was made 1 hour and 15 minutes ago, at 17:00 UTC
Forecast valid from 15 at 18 UTC to 16 at 18 UTC
Wind 5 kt from the West/Northwest
Visibility 10 km or more
no clouds below 1500 m and no cumulonimbus
Probability 40% :
Temporary
from 15 at 18 UTC to 16 at 12 UTC
Scattered clouds at a height of 3000 ft, Towering cumulus.
rain showers,

TAF: LKPD 151700Z 1518/1618 30005KT CAVOK PROB40 TEMPO 1518/1612 SHRA SCT030TCU

Weather observations and forecasts of more than 4000 airports (METAR and TAF reports).

The available stations are represented by yellow and red dots on the map.

Hover mouse over dot to see the name of the station.

Then click to see weather observations and forecasts.

To change the map : click on the green buttons with a black cross to zoom in, on the green button with a dash to zoom out, or on the green arrows for adjacent maps.


METAR-TAF: